Pagina principală
METAR-TAF:

METAR-TAF

Aeroporturi :

Yap, Micronezia

Latitudine: 09-29N, longitudine: 138-05E, elevație: 28 m

Observații meteo curente

Raportul a fost făcut în urmă cu 15 de minute, la 02:52 UTC
Vânt 6 kt din direcții variabile
Temperatură 30°C
Umiditate 75%
Presiune 1009 hPa
Vizibilitate: 19.3 km
Nori puțini la o înălțime de 1600 picior
Nori împrăștiați la o înălțime de 13000 picior
Total acoperit la o înălțime de 30000 picior

METAR: PTYA 020252Z VRB06KT 12SM FEW016 SCT130 OVC300 30/25 A2979 RMK SLP088 8/178 T02980253 57019

Ora: 13:07 (03:07 UTC)

Prognoză

Raportul a fost făcut în urmă cu 3 ore și 40 de minute, la 23:27 UTC
Prognoză valabilă de la 02 ora 00 UTC la 02 ora 24 UTC
Vânt 10 kt de la Est/Nord-est
Vizibilitate: 10 km
Nori împrăștiați la o înălțime de 1600 picior
Nori fragmentați la o înălțime de 12000 picior
averse în apropiere

TAF: PTYA 012327Z 0200/0224 06010KT P6SM VCSH SCT016 BKN120

Observații și prognoze meteo pentru peste 4.000 de aeroporturi (rapoarte METAR și TAF).

Stațiile disponibile sunt reprezentate pe hartă prin puncte galbene și roșii.

Țineți indicatorul mouse-ului pe punctul dorit pentru a vedea denumirea stației.

Apoi, faceți clic pentru a vedea observațiile și prognozele meteorologice.

Pentru a schimba harta: Pentru mărire, faceți clic pe butoanele verzi cu cruce neagră; pentru micșorare, pe butonul verde cu o liniuță; pentru hărți învecinate, pe săgețile verzi.


METAR-TAF: